sensor_id;sensor_type;location;lat;lon;timestamp;pressure;altitude;pressure_sealevel;temperature;humidity
54546;BME280;40444;45.184;9.850;2023-01-10T00:02:16;100195.41;;;4.48;100.00
54546;BME280;40444;45.184;9.850;2023-01-10T00:04:45;100188.63;;;4.31;100.00
54546;BME280;40444;45.184;9.850;2023-01-10T00:07:13;100180.03;;;4.40;100.00
54546;BME280;40444;45.184;9.850;2023-01-10T00:09:41;100186.59;;;4.60;100.00
54546;BME280;40444;45.184;9.850;2023-01-10T00:12:10;100188.28;;;4.61;100.00
54546;BME280;40444;45.184;9.850;2023-01-10T00:14:56;100185.66;;;4.48;100.00
54546;BME280;40444;45.184;9.850;2023-01-10T00:17:24;100190.94;;;4.61;100.00
54546;BME280;40444;45.184;9.850;2023-01-10T00:19:53;100193.06;;;4.56;100.00
54546;BME280;40444;45.184;9.850;2023-01-10T00:22:22;100186.81;;;4.44;100.00
54546;BME280;40444;45.184;9.850;2023-01-10T00:24:53;100189.03;;;4.50;100.00
54546;BME280;40444;45.184;9.850;2023-01-10T00:27:21;100195.09;;;4.52;100.00
54546;BME280;40444;45.184;9.850;2023-01-10T00:29:50;100193.91;;;4.56;100.00
54546;BME280;40444;45.184;9.850;2023-01-10T00:32:22;100206.94;;;4.60;100.00
54546;BME280;40444;45.184;9.850;2023-01-10T00:34:50;100212.91;;;4.50;100.00
54546;BME280;40444;45.184;9.850;2023-01-10T00:37:19;100208.47;;;4.51;100.00
54546;BME280;40444;45.184;9.850;2023-01-10T00:39:48;100216.72;;;4.46;100.00
54546;BME280;40444;45.184;9.850;2023-01-10T00:42:16;100213.78;;;4.38;100.00
54546;BME280;40444;45.184;9.850;2023-01-10T00:45:04;100216.44;;;4.25;100.00
54546;BME280;40444;45.184;9.850;2023-01-10T00:47:33;100229.69;;;4.13;100.00
54546;BME280;40444;45.184;9.850;2023-01-10T00:50:01;100222.16;;;4.32;100.00
54546;BME280;40444;45.184;9.850;2023-01-10T00:52:32;100231.28;;;4.41;100.00
54546;BME280;40444;45.184;9.850;2023-01-10T00:55:00;100228.75;;;4.39;100.00
54546;BME280;40444;45.184;9.850;2023-01-10T00:57:28;100234.69;;;4.43;100.00
54546;BME280;40444;45.184;9.850;2023-01-10T00:59:56;100234.44;;;4.46;100.00
54546;BME280;40444;45.184;9.850;2023-01-10T01:02:24;100254.00;;;4.45;100.00
54546;BME280;40444;45.184;9.850;2023-01-10T01:04:53;100244.66;;;4.39;100.00
54546;BME280;40444;45.184;9.850;2023-01-10T01:07:22;100250.41;;;4.33;100.00
54546;BME280;40444;45.184;9.850;2023-01-10T01:09:51;100252.19;;;4.32;100.00
54546;BME280;40444;45.184;9.850;2023-01-10T01:12:38;100253.25;;;4.30;100.00
54546;BME280;40444;45.184;9.850;2023-01-10T01:15:07;100253.34;;;4.28;100.00
54546;BME280;40444;45.184;9.850;2023-01-10T01:17:35;100252.72;;;4.25;100.00
54546;BME280;40444;45.184;9.850;2023-01-10T01:20:04;100260.66;;;4.12;100.00
54546;BME280;40444;45.184;9.850;2023-01-10T01:22:33;100273.28;;;4.09;99.86
54546;BME280;40444;45.184;9.850;2023-01-10T01:25:02;100278.16;;;4.02;100.00
54546;BME280;40444;45.184;9.850;2023-01-10T01:27:32;100277.41;;;4.00;100.00
54546;BME280;40444;45.184;9.850;2023-01-10T01:30:02;100277.06;;;3.92;99.88
54546;BME280;40444;45.184;9.850;2023-01-10T01:32:31;100278.66;;;3.94;99.43
54546;BME280;40444;45.184;9.850;2023-01-10T01:34:59;100292.13;;;3.91;98.85
54546;BME280;40444;45.184;9.850;2023-01-10T01:37:28;100298.28;;;4.04;98.43
54546;BME280;40444;45.184;9.850;2023-01-10T01:39:56;100307.31;;;4.15;96.85
54546;BME280;40444;45.184;9.850;2023-01-10T01:42:27;100303.75;;;4.16;96.67
54546;BME280;40444;45.184;9.850;2023-01-10T01:53:02;100320.44;;;4.43;95.46
54546;BME280;40444;45.184;9.850;2023-01-10T01:55:35;100321.47;;;4.53;93.07
54546;BME280;40444;45.184;9.850;2023-01-10T01:58:07;100322.97;;;4.45;92.88
54546;BME280;40444;45.184;9.850;2023-01-10T02:00:38;100333.19;;;4.51;94.17
54546;BME280;40444;45.184;9.850;2023-01-10T02:03:07;100336.44;;;4.54;93.77
54546;BME280;40444;45.184;9.850;2023-01-10T02:05:37;100339.22;;;4.66;92.32
54546;BME280;40444;45.184;9.850;2023-01-10T02:08:07;100334.53;;;4.82;92.26
54546;BME280;40444;45.184;9.850;2023-01-10T02:11:02;100351.53;;;4.79;91.57
54546;BME280;40444;45.184;9.850;2023-01-10T02:13:36;100348.03;;;4.79;91.59
54546;BME280;40444;45.184;9.850;2023-01-10T02:16:08;100348.13;;;4.77;91.96
54546;BME280;40444;45.184;9.850;2023-01-10T02:18:38;100347.72;;;4.84;91.33
54546;BME280;40444;45.184;9.850;2023-01-10T02:27:11;100359.50;;;4.79;91.73
54546;BME280;40444;45.184;9.850;2023-01-10T02:29:57;100355.16;;;4.78;92.28
54546;BME280;40444;45.184;9.850;2023-01-10T02:38:47;100366.50;;;4.80;91.03
54546;BME280;40444;45.184;9.850;2023-01-10T02:46:54;100380.19;;;4.74;91.17
54546;BME280;40444;45.184;9.850;2023-01-10T02:49:23;100371.81;;;4.80;91.07
54546;BME280;40444;45.184;9.850;2023-01-10T02:51:51;100369.59;;;4.74;91.66
54546;BME280;40444;45.184;9.850;2023-01-10T02:54:28;100377.44;;;4.76;90.63
54546;BME280;40444;45.184;9.850;2023-01-10T03:02:32;100374.91;;;4.74;90.72
54546;BME280;40444;45.184;9.850;2023-01-10T03:11:07;100391.44;;;4.91;87.40
54546;BME280;40444;45.184;9.850;2023-01-10T03:13:45;100387.09;;;4.90;87.81
54546;BME280;40444;45.184;9.850;2023-01-10T03:16:21;100383.06;;;4.97;88.50
54546;BME280;40444;45.184;9.850;2023-01-10T03:19:03;100385.09;;;4.93;88.60
54546;BME280;40444;45.184;9.850;2023-01-10T03:21:36;100387.94;;;4.77;89.51
54546;BME280;40444;45.184;9.850;2023-01-10T03:24:29;100386.75;;;4.81;89.69
54546;BME280;40444;45.184;9.850;2023-01-10T03:27:21;100387.00;;;4.78;89.76
54546;BME280;40444;45.184;9.850;2023-01-10T03:32:32;100388.03;;;4.76;89.94
54546;BME280;40444;45.184;9.850;2023-01-10T03:35:01;100395.81;;;4.79;89.68
54546;BME280;40444;45.184;9.850;2023-01-10T03:37:41;100399.31;;;4.79;90.33
54546;BME280;40444;45.184;9.850;2023-01-10T03:40:55;100400.59;;;4.74;88.99
54546;BME280;40444;45.184;9.850;2023-01-10T03:43:15;100408.97;;;4.80;87.75
54546;BME280;40444;45.184;9.850;2023-01-10T03:46:10;100411.75;;;4.92;87.07
54546;BME280;40444;45.184;9.850;2023-01-10T03:48:42;100413.84;;;4.99;85.57
54546;BME280;40444;45.184;9.850;2023-01-10T03:51:13;100415.78;;;5.10;85.13
54546;BME280;40444;45.184;9.850;2023-01-10T03:53:42;100418.63;;;5.20;84.44
54546;BME280;40444;45.184;9.850;2023-01-10T03:56:13;100424.78;;;5.20;84.64
54546;BME280;40444;45.184;9.850;2023-01-10T03:58:42;100416.63;;;5.23;84.61
54546;BME280;40444;45.184;9.850;2023-01-10T04:01:10;100418.72;;;5.31;84.17
54546;BME280;40444;45.184;9.850;2023-01-10T04:03:39;100415.44;;;5.27;83.16
54546;BME280;40444;45.184;9.850;2023-01-10T04:06:07;100428.09;;;5.24;84.17
54546;BME280;40444;45.184;9.850;2023-01-10T04:08:36;100429.66;;;5.26;83.87
54546;BME280;40444;45.184;9.850;2023-01-10T04:11:05;100435.75;;;5.28;84.01
54546;BME280;40444;45.184;9.850;2023-01-10T04:13:33;100437.53;;;5.28;82.46
54546;BME280;40444;45.184;9.850;2023-01-10T04:16:02;100434.66;;;5.31;82.55
54546;BME280;40444;45.184;9.850;2023-01-10T04:18:30;100444.22;;;5.33;82.38
54546;BME280;40444;45.184;9.850;2023-01-10T04:20:58;100454.53;;;5.38;82.45
54546;BME280;40444;45.184;9.850;2023-01-10T04:23:26;100451.88;;;5.38;82.96
54546;BME280;40444;45.184;9.850;2023-01-10T04:25:55;100457.94;;;5.27;83.26
54546;BME280;40444;45.184;9.850;2023-01-10T04:28:23;100466.97;;;5.38;82.74
54546;BME280;40444;45.184;9.850;2023-01-10T04:30:52;100461.88;;;5.35;81.98
54546;BME280;40444;45.184;9.850;2023-01-10T04:33:20;100464.31;;;5.38;82.76
54546;BME280;40444;45.184;9.850;2023-01-10T04:35:50;100468.13;;;5.33;83.15
54546;BME280;40444;45.184;9.850;2023-01-10T04:38:19;100471.75;;;5.32;83.13
54546;BME280;40444;45.184;9.850;2023-01-10T04:40:54;100466.97;;;5.25;84.30
54546;BME280;40444;45.184;9.850;2023-01-10T04:43:24;100472.59;;;5.07;83.70
54546;BME280;40444;45.184;9.850;2023-01-10T04:45:52;100479.28;;;5.13;84.26
54546;BME280;40444;45.184;9.850;2023-01-10T14:05:15;101126.59;;;15.05;38.28
54546;BME280;40444;45.184;9.850;2023-01-10T14:07:50;101127.66;;;15.30;39.83
54546;BME280;40444;45.184;9.850;2023-01-10T14:10:22;101119.91;;;15.53;39.81
54546;BME280;40444;45.184;9.850;2023-01-10T14:13:00;101117.94;;;15.37;37.94
54546;BME280;40444;45.184;9.850;2023-01-10T14:15:38;101127.94;;;15.45;37.47
54546;BME280;40444;45.184;9.850;2023-01-10T14:18:18;101133.59;;;15.51;38.78
54546;BME280;40444;45.184;9.850;2023-01-10T14:21:01;101138.03;;;15.60;38.03
54546;BME280;40444;45.184;9.850;2023-01-10T14:23:34;101139.06;;;15.77;38.24
54546;BME280;40444;45.184;9.850;2023-01-10T14:26:04;101135.03;;;15.81;41.27
54546;BME280;40444;45.184;9.850;2023-01-10T14:28:33;101139.44;;;15.82;44.07
54546;BME280;40444;45.184;9.850;2023-01-10T14:31:20;101141.59;;;15.79;41.30
54546;BME280;40444;45.184;9.850;2023-01-10T14:33:50;101145.41;;;15.68;40.93
54546;BME280;40444;45.184;9.850;2023-01-10T14:36:27;101150.41;;;15.63;38.01
54546;BME280;40444;45.184;9.850;2023-01-10T14:39:04;101145.41;;;15.50;38.71
54546;BME280;40444;45.184;9.850;2023-01-10T14:41:40;101151.75;;;15.41;38.05
54546;BME280;40444;45.184;9.850;2023-01-10T14:44:23;101150.34;;;15.37;39.90
54546;BME280;40444;45.184;9.850;2023-01-10T14:46:56;101145.25;;;15.34;37.99
54546;BME280;40444;45.184;9.850;2023-01-10T14:49:38;101142.94;;;15.21;38.84
54546;BME280;40444;45.184;9.850;2023-01-10T14:52:18;101136.06;;;15.09;37.18
54546;BME280;40444;45.184;9.850;2023-01-10T14:54:54;101141.25;;;15.02;39.60
54546;BME280;40444;45.184;9.850;2023-01-10T14:57:28;101143.94;;;15.02;41.80
54546;BME280;40444;45.184;9.850;2023-01-10T15:00:14;101144.00;;;14.93;43.35
54546;BME280;40444;45.184;9.850;2023-01-10T15:02:46;101144.94;;;14.83;44.39
54546;BME280;40444;45.184;9.850;2023-01-10T16:46:25;101288.41;;;9.29;53.98
54546;BME280;40444;45.184;9.850;2023-01-10T16:48:54;101283.56;;;9.34;55.61
54546;BME280;40444;45.184;9.850;2023-01-10T16:51:25;101296.28;;;9.43;54.50
54546;BME280;40444;45.184;9.850;2023-01-10T16:53:55;101287.53;;;9.28;54.69
54546;BME280;40444;45.184;9.850;2023-01-10T16:56:26;101296.19;;;9.32;55.72
54546;BME280;40444;45.184;9.850;2023-01-10T16:58:55;101291.31;;;9.50;56.21
54546;BME280;40444;45.184;9.850;2023-01-10T17:01:36;101299.63;;;9.58;54.13
54546;BME280;40444;45.184;9.850;2023-01-10T17:04:06;101301.44;;;9.57;52.76
54546;BME280;40444;45.184;9.850;2023-01-10T17:06:36;101300.47;;;9.58;52.00
54546;BME280;40444;45.184;9.850;2023-01-10T17:09:26;101298.56;;;9.60;50.46
54546;BME280;40444;45.184;9.850;2023-01-10T17:11:57;101304.97;;;9.58;51.25
54546;BME280;40444;45.184;9.850;2023-01-10T17:14:34;101301.66;;;9.54;51.87
54546;BME280;40444;45.184;9.850;2023-01-10T17:17:03;101307.34;;;9.50;52.30
54546;BME280;40444;45.184;9.850;2023-01-10T17:19:31;101313.91;;;9.46;51.76
54546;BME280;40444;45.184;9.850;2023-01-10T17:22:01;101303.66;;;9.40;52.98
54546;BME280;40444;45.184;9.850;2023-01-10T17:24:29;101308.50;;;9.34;52.10
54546;BME280;40444;45.184;9.850;2023-01-10T17:26:58;101314.59;;;9.24;51.98
54546;BME280;40444;45.184;9.850;2023-01-10T17:29:27;101310.56;;;9.18;51.98
54546;BME280;40444;45.184;9.850;2023-01-10T17:31:57;101309.41;;;9.09;51.98
54546;BME280;40444;45.184;9.850;2023-01-10T17:34:26;101311.44;;;9.06;52.26
54546;BME280;40444;45.184;9.850;2023-01-10T17:36:54;101313.84;;;8.98;52.69
54546;BME280;40444;45.184;9.850;2023-01-10T17:39:23;101309.88;;;8.91;52.75
54546;BME280;40444;45.184;9.850;2023-01-10T17:41:53;101318.44;;;8.83;52.90
54546;BME280;40444;45.184;9.850;2023-01-10T17:44:24;101305.63;;;8.75;53.58
54546;BME280;40444;45.184;9.850;2023-01-10T17:46:53;101311.84;;;8.76;55.34
54546;BME280;40444;45.184;9.850;2023-01-10T17:49:23;101306.25;;;8.79;53.90
54546;BME280;40444;45.184;9.850;2023-01-10T17:51:52;101322.50;;;8.89;55.13
54546;BME280;40444;45.184;9.850;2023-01-10T17:54:21;101322.41;;;8.90;56.98
54546;BME280;40444;45.184;9.850;2023-01-10T17:56:50;101324.94;;;8.92;57.64
54546;BME280;40444;45.184;9.850;2023-01-10T17:59:18;101329.31;;;8.93;58.93
54546;BME280;40444;45.184;9.850;2023-01-10T18:01:47;101335.75;;;8.90;53.44
54546;BME280;40444;45.184;9.850;2023-01-10T18:04:16;101341.53;;;8.84;54.36
54546;BME280;40444;45.184;9.850;2023-01-10T18:06:44;101339.72;;;8.84;53.27
54546;BME280;40444;45.184;9.850;2023-01-10T18:09:13;101344.84;;;8.88;53.31
54546;BME280;40444;45.184;9.850;2023-01-10T18:11:42;101345.72;;;8.75;53.64
54546;BME280;40444;45.184;9.850;2023-01-10T18:14:11;101343.34;;;8.83;53.44
54546;BME280;40444;45.184;9.850;2023-01-10T18:16:58;101339.81;;;8.83;54.17
54546;BME280;40444;45.184;9.850;2023-01-10T18:19:27;101353.81;;;8.74;54.90
54546;BME280;40444;45.184;9.850;2023-01-10T18:21:59;101354.13;;;8.56;57.26
54546;BME280;40444;45.184;9.850;2023-01-10T18:24:28;101364.81;;;8.44;57.97
54546;BME280;40444;45.184;9.850;2023-01-10T18:26:56;101363.03;;;8.30;58.28
54546;BME280;40444;45.184;9.850;2023-01-10T18:29:25;101365.19;;;8.25;59.70
54546;BME280;40444;45.184;9.850;2023-01-10T18:31:54;101357.06;;;8.14;58.99
54546;BME280;40444;45.184;9.850;2023-01-10T18:34:22;101360.69;;;8.13;58.72
54546;BME280;40444;45.184;9.850;2023-01-10T18:36:51;101369.13;;;8.19;59.30
54546;BME280;40444;45.184;9.850;2023-01-10T18:39:20;101368.94;;;8.22;61.51
54546;BME280;40444;45.184;9.850;2023-01-10T18:41:49;101367.31;;;8.20;62.82
54546;BME280;40444;45.184;9.850;2023-01-10T18:44:17;101374.66;;;8.16;60.58
54546;BME280;40444;45.184;9.850;2023-01-10T18:46:46;101373.13;;;7.99;60.95
54546;BME280;40444;45.184;9.850;2023-01-10T18:49:15;101376.38;;;7.77;63.02
54546;BME280;40444;45.184;9.850;2023-01-10T18:51:44;101379.47;;;7.57;64.87
54546;BME280;40444;45.184;9.850;2023-01-10T18:54:13;101379.31;;;7.46;64.56
54546;BME280;40444;45.184;9.850;2023-01-10T18:56:42;101375.97;;;7.42;66.34
54546;BME280;40444;45.184;9.850;2023-01-10T18:59:11;101380.47;;;7.42;67.15
54546;BME280;40444;45.184;9.850;2023-01-10T19:01:40;101386.53;;;7.44;68.37
54546;BME280;40444;45.184;9.850;2023-01-10T19:04:09;101383.88;;;7.44;68.84
54546;BME280;40444;45.184;9.850;2023-01-10T19:06:38;101384.66;;;7.46;69.74
54546;BME280;40444;45.184;9.850;2023-01-10T19:09:07;101389.00;;;7.47;70.20
54546;BME280;40444;45.184;9.850;2023-01-10T19:11:36;101393.50;;;7.46;69.63
54546;BME280;40444;45.184;9.850;2023-01-10T19:14:04;101395.22;;;7.33;68.00
54546;BME280;40444;45.184;9.850;2023-01-10T19:16:33;101398.81;;;7.32;65.56
54546;BME280;40444;45.184;9.850;2023-01-10T19:19:05;101390.06;;;7.30;65.19
54546;BME280;40444;45.184;9.850;2023-01-10T19:21:36;101387.22;;;7.33;65.99
54546;BME280;40444;45.184;9.850;2023-01-10T19:24:22;101387.78;;;7.38;68.15
54546;BME280;40444;45.184;9.850;2023-01-10T19:26:52;101381.50;;;7.39;68.93
54546;BME280;40444;45.184;9.850;2023-01-10T19:29:22;101387.13;;;7.34;68.03
54546;BME280;40444;45.184;9.850;2023-01-10T19:31:51;101394.66;;;7.28;66.08
54546;BME280;40444;45.184;9.850;2023-01-10T19:34:21;101390.09;;;7.16;68.85
54546;BME280;40444;45.184;9.850;2023-01-10T19:36:50;101388.00;;;7.06;69.86
54546;BME280;40444;45.184;9.850;2023-01-10T19:39:19;101389.44;;;6.98;70.61
54546;BME280;40444;45.184;9.850;2023-01-10T19:41:48;101397.78;;;6.92;71.25
54546;BME280;40444;45.184;9.850;2023-01-10T19:44:17;101399.13;;;6.84;72.61
54546;BME280;40444;45.184;9.850;2023-01-10T19:46:45;101396.94;;;6.77;72.90
54546;BME280;40444;45.184;9.850;2023-01-10T19:49:17;101389.41;;;6.69;73.95
54546;BME280;40444;45.184;9.850;2023-01-10T19:51:48;101396.75;;;6.66;73.08
54546;BME280;40444;45.184;9.850;2023-01-10T19:54:21;101395.97;;;6.64;70.32
54546;BME280;40444;45.184;9.850;2023-01-10T19:56:51;101404.72;;;6.66;68.98
54546;BME280;40444;45.184;9.850;2023-01-10T19:59:20;101409.84;;;6.69;68.94
54546;BME280;40444;45.184;9.850;2023-01-10T20:01:49;101405.31;;;6.71;68.09
54546;BME280;40444;45.184;9.850;2023-01-10T20:04:18;101406.25;;;6.70;68.06
54546;BME280;40444;45.184;9.850;2023-01-10T20:06:47;101400.94;;;6.70;67.69
54546;BME280;40444;45.184;9.850;2023-01-10T20:09:16;101399.13;;;6.70;68.87
54546;BME280;40444;45.184;9.850;2023-01-10T20:11:45;101409.84;;;6.69;70.06
54546;BME280;40444;45.184;9.850;2023-01-10T20:14:16;101413.00;;;6.61;69.26
54546;BME280;40444;45.184;9.850;2023-01-10T20:16:46;101410.00;;;6.51;68.85
54546;BME280;40444;45.184;9.850;2023-01-10T20:19:23;101415.13;;;6.40;69.83
54546;BME280;40444;45.184;9.850;2023-01-10T20:21:52;101417.28;;;6.33;70.13
54546;BME280;40444;45.184;9.850;2023-01-10T20:24:22;101409.50;;;6.30;71.45
54546;BME280;40444;45.184;9.850;2023-01-10T20:26:51;101415.75;;;6.29;72.81
54546;BME280;40444;45.184;9.850;2023-01-10T20:29:20;101410.50;;;6.28;73.16
54546;BME280;40444;45.184;9.850;2023-01-10T20:31:49;101406.41;;;6.22;74.11
54546;BME280;40444;45.184;9.850;2023-01-10T20:34:20;101408.84;;;6.11;73.83
54546;BME280;40444;45.184;9.850;2023-01-10T20:36:50;101416.69;;;5.98;73.96
54546;BME280;40444;45.184;9.850;2023-01-10T20:39:23;101405.75;;;5.87;74.38
54546;BME280;40444;45.184;9.850;2023-01-10T20:41:53;101409.88;;;5.61;73.68
54546;BME280;40444;45.184;9.850;2023-01-10T20:44:22;101421.66;;;5.73;73.56
54546;BME280;40444;45.184;9.850;2023-01-10T20:46:52;101410.50;;;5.82;72.95
54546;BME280;40444;45.184;9.850;2023-01-10T20:49:23;101413.56;;;5.90;73.63
54546;BME280;40444;45.184;9.850;2023-01-10T20:51:52;101417.53;;;5.99;74.37
54546;BME280;40444;45.184;9.850;2023-01-10T20:54:21;101422.50;;;6.05;74.67
54546;BME280;40444;45.184;9.850;2023-01-10T20:56:50;101417.00;;;6.08;76.02
54546;BME280;40444;45.184;9.850;2023-01-10T20:59:19;101419.69;;;6.08;74.79
54546;BME280;40444;45.184;9.850;2023-01-10T21:01:48;101422.22;;;6.10;75.32
54546;BME280;40444;45.184;9.850;2023-01-10T21:04:16;101413.50;;;6.07;75.19
54546;BME280;40444;45.184;9.850;2023-01-10T21:06:45;101419.84;;;6.05;72.56
54546;BME280;40444;45.184;9.850;2023-01-10T21:09:14;101420.69;;;6.05;72.12
54546;BME280;40444;45.184;9.850;2023-01-10T21:11:44;101422.41;;;6.06;75.08
54546;BME280;40444;45.184;9.850;2023-01-10T21:14:33;101435.91;;;6.03;75.60
54546;BME280;40444;45.184;9.850;2023-01-10T21:17:02;101437.78;;;6.01;75.00
54546;BME280;40444;45.184;9.850;2023-01-10T21:19:30;101445.06;;;5.98;73.98
54546;BME280;40444;45.184;9.850;2023-01-10T21:21:59;101448.84;;;5.94;74.99
54546;BME280;40444;45.184;9.850;2023-01-10T21:24:28;101453.63;;;5.87;75.92
54546;BME280;40444;45.184;9.850;2023-01-10T21:26:56;101458.47;;;5.80;74.88
54546;BME280;40444;45.184;9.850;2023-01-10T21:29:25;101453.72;;;5.70;73.17
54546;BME280;40444;45.184;9.850;2023-01-10T21:31:55;101455.44;;;5.71;72.31
54546;BME280;40444;45.184;9.850;2023-01-10T21:34:24;101458.28;;;5.68;72.57
54546;BME280;40444;45.184;9.850;2023-01-10T21:36:52;101457.47;;;5.66;72.69
54546;BME280;40444;45.184;9.850;2023-01-10T21:39:21;101463.00;;;5.63;72.91
54546;BME280;40444;45.184;9.850;2023-01-10T21:41:49;101470.28;;;5.59;73.41
54546;BME280;40444;45.184;9.850;2023-01-10T21:44:36;101469.31;;;5.60;74.56
54546;BME280;40444;45.184;9.850;2023-01-10T21:47:05;101473.00;;;5.57;75.98
54546;BME280;40444;45.184;9.850;2023-01-10T21:49:33;101470.59;;;5.53;77.52
54546;BME280;40444;45.184;9.850;2023-01-10T21:52:02;101472.75;;;5.46;77.12
54546;BME280;40444;45.184;9.850;2023-01-10T21:54:30;101482.81;;;5.40;76.98
54546;BME280;40444;45.184;9.850;2023-01-10T21:56:59;101479.56;;;5.35;76.93
54546;BME280;40444;45.184;9.850;2023-01-10T21:59:28;101477.84;;;5.33;76.84
54546;BME280;40444;45.184;9.850;2023-01-10T22:01:57;101486.59;;;5.36;76.91
54546;BME280;40444;45.184;9.850;2023-01-10T22:04:26;101469.72;;;5.37;77.50
54546;BME280;40444;45.184;9.850;2023-01-10T22:06:58;101469.78;;;5.35;78.94
54546;BME280;40444;45.184;9.850;2023-01-10T22:09:26;101468.09;;;5.34;78.30
54546;BME280;40444;45.184;9.850;2023-01-10T22:12:03;101472.78;;;5.29;78.22
54546;BME280;40444;45.184;9.850;2023-01-10T22:14:32;101471.22;;;5.25;78.80
54546;BME280;40444;45.184;9.850;2023-01-10T22:17:02;101484.16;;;5.15;78.89
54546;BME280;40444;45.184;9.850;2023-01-10T22:19:30;101482.75;;;5.08;80.50
54546;BME280;40444;45.184;9.850;2023-01-10T22:21:59;101483.06;;;5.02;81.19
54546;BME280;40444;45.184;9.850;2023-01-10T22:24:28;101479.72;;;4.98;81.43
54546;BME280;40444;45.184;9.850;2023-01-10T22:26:57;101490.44;;;4.97;81.57
54546;BME280;40444;45.184;9.850;2023-01-10T22:29:26;101487.94;;;4.94;81.84
54546;BME280;40444;45.184;9.850;2023-01-10T22:31:55;101480.91;;;4.93;82.07
54546;BME280;40444;45.184;9.850;2023-01-10T22:34:24;101485.38;;;4.92;80.97
54546;BME280;40444;45.184;9.850;2023-01-10T22:36:53;101489.81;;;4.92;74.65
54546;BME280;40444;45.184;9.850;2023-01-10T22:39:22;101489.81;;;4.92;78.97
54546;BME280;40444;45.184;9.850;2023-01-10T22:41:51;101479.97;;;4.94;79.64
54546;BME280;40444;45.184;9.850;2023-01-10T22:44:24;101479.88;;;4.95;80.58
54546;BME280;40444;45.184;9.850;2023-01-10T22:46:54;101479.97;;;4.94;80.21
54546;BME280;40444;45.184;9.850;2023-01-10T22:49:22;101475.50;;;4.94;79.83
54546;BME280;40444;45.184;9.850;2023-01-10T22:51:52;101477.31;;;4.94;80.75
54546;BME280;40444;45.184;9.850;2023-01-10T22:54:21;101466.06;;;4.89;80.98
54546;BME280;40444;45.184;9.850;2023-01-10T22:56:51;101464.66;;;4.81;80.01
54546;BME280;40444;45.184;9.850;2023-01-10T22:59:19;101467.63;;;4.75;80.64
54546;BME280;40444;45.184;9.850;2023-01-10T23:01:47;101469.75;;;4.69;81.95
54546;BME280;40444;45.184;9.850;2023-01-10T23:04:16;101477.94;;;4.64;81.97
54546;BME280;40444;45.184;9.850;2023-01-10T23:06:47;101472.84;;;4.60;82.96
54546;BME280;40444;45.184;9.850;2023-01-10T23:09:17;101460.84;;;4.52;82.95
54546;BME280;40444;45.184;9.850;2023-01-10T23:11:46;101462.94;;;4.46;83.26
54546;BME280;40444;45.184;9.850;2023-01-10T23:14:14;101454.44;;;4.39;84.50
54546;BME280;40444;45.184;9.850;2023-01-10T23:16:42;101440.47;;;4.36;84.32
54546;BME280;40444;45.184;9.850;2023-01-10T23:19:11;101440.69;;;4.31;84.80
54546;BME280;40444;45.184;9.850;2023-01-10T23:21:40;101441.06;;;4.23;85.56
54546;BME280;40444;45.184;9.850;2023-01-10T23:24:09;101441.47;;;4.16;86.94
54546;BME280;40444;45.184;9.850;2023-01-10T23:26:38;101447.16;;;4.08;87.40
54546;BME280;40444;45.184;9.850;2023-01-10T23:29:06;101446.56;;;4.01;86.99
54546;BME280;40444;45.184;9.850;2023-01-10T23:31:35;101449.63;;;3.94;86.99
54546;BME280;40444;45.184;9.850;2023-01-10T23:34:04;101450.53;;;3.93;88.02
54546;BME280;40444;45.184;9.850;2023-01-10T23:36:33;101448.19;;;3.87;88.55
54546;BME280;40444;45.184;9.850;2023-01-10T23:39:01;101454.56;;;3.83;88.92
54546;BME280;40444;45.184;9.850;2023-01-10T23:41:29;101453.00;;;3.78;89.23
54546;BME280;40444;45.184;9.850;2023-01-10T23:43:58;101455.00;;;3.73;88.23
54546;BME280;40444;45.184;9.850;2023-01-10T23:46:26;101456.16;;;3.68;88.45
54546;BME280;40444;45.184;9.850;2023-01-10T23:48:55;101453.09;;;3.58;88.18
54546;BME280;40444;45.184;9.850;2023-01-10T23:51:23;101449.22;;;3.46;88.67
54546;BME280;40444;45.184;9.850;2023-01-10T23:53:51;101448.91;;;3.34;89.60
54546;BME280;40444;45.184;9.850;2023-01-10T23:56:20;101455.22;;;3.31;90.38
54546;BME280;40444;45.184;9.850;2023-01-10T23:58:51;101452.63;;;3.29;91.57
